This is the latest recevied weather packets stored in our database for station/object IU1TLK-10. If no packets are shown the sender has not sent any weather packets the latest 10 day(s).
| Time | Temp. | Humidity | Pressure | Rain* | Wind** | Luminosity | Snow |
|---|---|---|---|---|---|---|---|
| 1778190523 | 12.78° C | 61% | 1016.3 hPa | - | - | - | - |
| 1778188723 | 13.33° C | 60% | 1016.2 hPa | - | - | - | - |
| 1778186925 | 13.33° C | 58% | 1016.1 hPa | - | - | - | - |
| 1778185125 | 13.33° C | 58% | 1016 hPa | - | - | - | - |
| 1778183325 | 13.89° C | 56% | 1015.6 hPa | - | - | - | - |
| 1778181525 | 13.89° C | 57% | 1015.1 hPa | - | - | - | - |
| 1778179724 | 14.44° C | 55% | 1014.8 hPa | - | - | - | - |
| 1778177924 | 15° C | 55% | 1014.7 hPa | - | - | - | - |
| 1778176124 | 15.56° C | 54% | 1014.5 hPa | - | - | - | - |
| 1778174324 | 15.56° C | 52% | 1014.5 hPa | - | - | - | - |
| 1778172523 | 16.11° C | 48% | 1014.3 hPa | - | - | - | - |
| 1778170723 | 16.67° C | 49% | 1014.2 hPa | - | - | - | - |
| 1778168923 | 17.22° C | 49% | 1014 hPa | - | - | - | - |
| 1778167562 | 17.22° C | 41% | 1014.1 hPa | - | - | - | - |
| 1778167123 | 17.22° C | 41% | 1014.1 hPa | - | - | - | - |
| 1778165326 | 17.22° C | 42% | 1014.1 hPa | - | - | - | - |
| 1778163525 | 17.22° C | 44% | 1014.3 hPa | - | - | - | - |
| 1778161725 | 17.22° C | 45% | 1014.6 hPa | - | - | - | - |
| 1778159925 | 16.67° C | 46% | 1014.9 hPa | - | - | - | - |
| 1778158123 | 16.67° C | 45% | 1015.2 hPa | - | - | - | - |
| 1778156323 | 16.67° C | 44% | 1015.3 hPa | - | - | - | - |
| 1778154523 | 16.67° C | 47% | 1015.5 hPa | - | - | - | - |
| 1778152723 | 15.56° C | 48% | 1015.9 hPa | - | - | - | - |
| 1778150923 | 16.67° C | 49% | 1016.1 hPa | - | - | - | - |
| 1778149122 | 16.11° C | 51% | 1016.4 hPa | - | - | - | - |
* Rain since midnight (hover to see other rain measurements)
** Current wind speed in m/s (hover to see current wind gust speed)